Station History

Weather Underground - logo

Station Historical Data
Daily Summary for January 31, 2018 Units:  Metric    English   Both
« Previous Day
Next Day »
Daily Weekly Monthly Yearly Custom
  High: Low: Average:
Temperature: 19.8 °C 4.2 °C 10.8 °C
Dew Point: 12.6 °C 3.2 °C 7.9 °C
Humidity: 96 % 58 % 84 %
Wind Speed: 5.6 km/h 0 km/h 0.5 km/h
Wind Gust: 5.6 km/h - -
Wind:- - WSW
Pressure: 1020.9 hPa 1016.5 hPa -
Precipitation: 0 mm    
Historical Graphs
 
 
Tabular Data for January 31, 2018
Time Temperature Dew Point Pressure Wind Wind Speed Wind Gust Humidity Rainfall Rate (Hourly)
00:04 7.3 °C 5.9 °C 1019.2 hPa Calm     91 % 0 mm
00:10 7 °C 5.4 °C 1019.2 hPa Calm     90 % 0 mm
00:15 6.8 °C 5.3 °C 1019.2 hPa Calm     90 % 0 mm
00:20 6.6 °C 5.2 °C 1019.2 hPa Calm     91 % 0 mm
00:25 6.6 °C 5.2 °C 1019.2 hPa Calm     91 % 0 mm
00:30 6.4 °C 5.1 °C 1018.8 hPa Calm     91 % 0 mm
00:35 6.2 °C 4.7 °C 1018.8 hPa Calm     90 % 0 mm
00:40 6.1 °C 4.8 °C 1018.8 hPa Calm     91 % 0 mm
00:45 6.1 °C 4.7 °C 1018.8 hPa Calm     91 % 0 mm
00:50 5.9 °C 4.6 °C 1018.8 hPa Calm     91 % 0 mm
00:55 5.8 °C 4.5 °C 1018.8 hPa Calm     91 % 0 mm
01:00 5.8 °C 4.6 °C 1018.8 hPa Calm     92 % 0 mm
01:05 5.9 °C 4.7 °C 1018.8 hPa Calm     92 % 0 mm
01:10 6 °C 4.9 °C 1019.2 hPa Calm     93 % 0 mm
01:15 6 °C 4.8 °C 1019.2 hPa Calm     92 % 0 mm
01:20 6.1 °C 5 °C 1019.2 hPa Calm     93 % 0 mm
01:25 6.1 °C 5.1 °C 1019.2 hPa Calm     93 % 0 mm
01:30 6.2 °C 5.1 °C 1018.8 hPa Calm     93 % 0 mm
01:35 6.2 °C 5.1 °C 1019.2 hPa Calm     93 % 0 mm
01:40 6.2 °C 5.1 °C 1019.2 hPa Calm     93 % 0 mm
01:45 6.2 °C 5.1 °C 1019.2 hPa Calm     93 % 0 mm
01:50 6.1 °C 5.1 °C 1019.2 hPa Calm     93 % 0 mm
01:55 6.1 °C 5.1 °C 1019.2 hPa Calm     93 % 0 mm
02:00 6.3 °C 5.4 °C 1019.2 hPa Calm     94 % 0 mm
02:05 6.3 °C 5.4 °C 1019.2 hPa SSE 5.6 km/h   94 % 0 mm
02:10 6.3 °C 5.2 °C 1019.2 hPa Calm     93 % 0 mm
02:15 6.1 °C 5.1 °C 1019.2 hPa Calm     93 % 0 mm
02:20 5.9 °C 4.9 °C 1019.2 hPa Calm     93 % 0 mm
02:25 5.7 °C 4.5 °C 1019.2 hPa Calm     92 % 0 mm
02:30 5.7 °C 4.4 °C 1019.2 hPa Calm     92 % 0 mm
02:35 5.7 °C 4.6 °C 1019.2 hPa Calm     93 % 0 mm
02:40 5.7 °C 4.6 °C 1019.2 hPa Calm     93 % 0 mm
02:45 5.6 °C 4.6 °C 1019.2 hPa Calm     93 % 0 mm
02:50 5.4 °C 4.4 °C 1019.2 hPa Calm     93 % 0 mm
02:55 5.4 °C 4.3 °C 1019.2 hPa Calm     93 % 0 mm
03:00 5.4 °C 4.4 °C 1019.2 hPa Calm     93 % 0 mm
03:05 5.4 °C 4.3 °C 1019.2 hPa Calm     93 % 0 mm
03:10 5.3 °C 4.3 °C 1019.2 hPa Calm     93 % 0 mm
03:15 5.3 °C 4.3 °C 1018.8 hPa Calm     93 % 0 mm
03:20 5.3 °C 4.2 °C 1019.2 hPa Calm     93 % 0 mm
03:25 5.4 °C 4.3 °C 1019.2 hPa Calm     93 % 0 mm
03:30 5.2 °C 4 °C 1019.2 hPa Calm     92 % 0 mm
03:35 4.8 °C 3.5 °C 1019.2 hPa Calm     91 % 0 mm
03:41 4.8 °C 3.6 °C 1019.2 hPa Calm     92 % 0 mm
03:46 4.8 °C 3.6 °C 1019.2 hPa Calm     92 % 0 mm
03:51 4.8 °C 3.7 °C 1019.2 hPa Calm     93 % 0 mm
03:56 4.8 °C 3.8 °C 1019.2 hPa Calm     93 % 0 mm
04:01 4.8 °C 3.8 °C 1019.2 hPa Calm     93 % 0 mm
04:06 4.9 °C 4.1 °C 1019.2 hPa Calm     94 % 0 mm
04:11 4.9 °C 3.8 °C 1019.2 hPa Calm     93 % 0 mm
04:16 4.7 °C 3.6 °C 1019.2 hPa Calm     93 % 0 mm
04:21 4.7 °C 3.6 °C 1019.2 hPa Calm     93 % 0 mm
04:26 4.6 °C 3.6 °C 1019.2 hPa Calm     93 % 0 mm
04:31 4.4 °C 3.4 °C 1019.2 hPa Calm     93 % 0 mm
04:36 4.4 °C 3.4 °C 1019.2 hPa Calm     93 % 0 mm
04:41 4.4 °C 3.4 °C 1019.2 hPa Calm     93 % 0 mm
04:46 4.4 °C 3.4 °C 1019.2 hPa Calm     93 % 0 mm
04:51 4.4 °C 3.3 °C 1019.2 hPa Calm     93 % 0 mm
04:56 4.3 °C 3.3 °C 1019.2 hPa Calm     93 % 0 mm
05:01 4.3 °C 3.2 °C 1019.2 hPa Calm     93 % 0 mm
05:06 4.2 °C 3.2 °C 1019.2 hPa Calm     93 % 0 mm
05:11 4.3 °C 3.4 °C 1019.2 hPa Calm     94 % 0 mm
05:16 4.3 °C 3.4 °C 1019.5 hPa Calm     94 % 0 mm
05:21 4.3 °C 3.4 °C 1019.5 hPa Calm     94 % 0 mm
05:26 4.3 °C 3.4 °C 1019.5 hPa Calm     94 % 0 mm
05:31 4.3 °C 3.4 °C 1019.5 hPa Calm     94 % 0 mm
05:36 4.4 °C 3.6 °C 1019.5 hPa Calm     94 % 0 mm
05:41 4.5 °C 3.6 °C 1019.5 hPa Calm     94 % 0 mm
05:46 4.4 °C 3.5 °C 1019.5 hPa Calm     94 % 0 mm
05:51 4.3 °C 3.2 °C 1019.5 hPa Calm     93 % 0 mm
05:56 4.2 °C 3.2 °C 1019.5 hPa Calm     93 % 0 mm
06:01 4.4 °C 3.6 °C 1019.5 hPa Calm     94 % 0 mm
06:06 4.4 °C 3.6 °C 1019.5 hPa Calm     94 % 0 mm
06:11 4.4 °C 3.6 °C 1019.5 hPa Calm     94 % 0 mm
06:16 4.4 °C 3.6 °C 1019.5 hPa Calm     94 % 0 mm
06:21 4.4 °C 3.6 °C 1019.9 hPa Calm     94 % 0 mm
06:26 4.4 °C 3.7 °C 1019.9 hPa Calm     95 % 0 mm
06:31 4.4 °C 3.7 °C 1019.9 hPa Calm     95 % 0 mm
06:36 4.4 °C 3.7 °C 1019.9 hPa Calm     95 % 0 mm
06:41 4.3 °C 3.6 °C 1019.9 hPa Calm     95 % 0 mm
06:46 4.4 °C 3.7 °C 1019.9 hPa Calm     95 % 0 mm
06:51 4.4 °C 3.7 °C 1020.2 hPa Calm     95 % 0 mm
06:56 4.4 °C 3.7 °C 1019.9 hPa Calm     95 % 0 mm
07:01 4.6 °C 3.8 °C 1020.2 hPa Calm     95 % 0 mm
07:06 4.7 °C 3.9 °C 1020.2 hPa Calm     95 % 0 mm
07:11 4.7 °C 3.9 °C 1020.2 hPa Calm     95 % 0 mm
07:16 4.7 °C 4 °C 1020.2 hPa Calm     95 % 0 mm
07:21 4.8 °C 4.1 °C 1020.2 hPa Calm     95 % 0 mm
07:26 4.8 °C 4.1 °C 1020.2 hPa Calm     95 % 0 mm
07:31 4.9 °C 4.2 °C 1020.2 hPa Calm     95 % 0 mm
07:36 5 °C 4.4 °C 1020.2 hPa Calm     96 % 0 mm
07:41 5.2 °C 4.6 °C 1020.2 hPa Calm     96 % 0 mm
07:46 5.3 °C 4.7 °C 1020.2 hPa Calm     96 % 0 mm
07:51 5.4 °C 4.8 °C 1020.2 hPa Calm     96 % 0 mm
07:56 5.4 °C 4.8 °C 1020.2 hPa Calm     96 % 0 mm
08:01 5.4 °C 4.8 °C 1020.2 hPa Calm     96 % 0 mm
08:06 5.4 °C 4.8 °C 1020.5 hPa Calm     96 % 0 mm
08:11 5.4 °C 4.8 °C 1020.5 hPa Calm     96 % 0 mm
08:16 5.6 °C 5 °C 1020.5 hPa Calm     96 % 0 mm
08:21 5.7 °C 5.1 °C 1020.5 hPa Calm     96 % 0 mm
08:26 5.9 °C 5.3 °C 1020.5 hPa Calm     96 % 0 mm
08:31 6.3 °C 5.7 °C 1020.9 hPa Calm     96 % 0 mm
08:36 7.1 °C 6.4 °C 1020.9 hPa Calm     96 % 0 mm
08:41 7.6 °C 7 °C 1020.9 hPa Calm     96 % 0 mm
08:46 8.1 °C 7.5 °C 1020.9 hPa Calm   0.2 km/h 96 % 0 mm
08:51 8.6 °C 7.9 °C 1020.9 hPa Calm     96 % 0 mm
08:56 8.8 °C 8.2 °C 1020.9 hPa SSE 3.7 km/h 3.7 km/h 96 % 0 mm
09:01 9 °C 8.4 °C 1020.9 hPa Calm     96 % 0 mm
09:06 9.3 °C 8.7 °C 1020.9 hPa SE 3.7 km/h 3.7 km/h 96 % 0 mm
09:11 9.6 °C 8.5 °C 1020.9 hPa SSE 1.9 km/h 1.9 km/h 93 % 0 mm
09:16 9.9 °C 8.9 °C 1020.9 hPa Calm     93 % 0 mm
09:21 10.3 °C 8.9 °C 1020.9 hPa Calm     91 % 0 mm
09:26 10.6 °C 9.1 °C 1020.9 hPa South 1.6 km/h 1.6 km/h 90 % 0 mm
09:31 10.9 °C 9.2 °C 1020.9 hPa Calm     89 % 0 mm
09:36 11.3 °C 9.4 °C 1020.9 hPa ESE 1.9 km/h 1.9 km/h 88 % 0 mm
09:41 11.6 °C 9.4 °C 1020.9 hPa Calm     87 % 0 mm
09:46 11.8 °C 9.7 °C 1020.9 hPa Calm   0.2 km/h 87 % 0 mm
09:51 12.1 °C 9.7 °C 1020.9 hPa SE 3.7 km/h 3.7 km/h 85 % 0 mm
09:56 12.6 °C 9.9 °C 1020.9 hPa South 1.9 km/h   84 % 0 mm
10:01 12.7 °C 9.9 °C 1020.9 hPa SE 1.9 km/h 1.9 km/h 83 % 0 mm
10:06 12.9 °C 9.9 °C 1020.9 hPa SE 1.9 km/h 1.9 km/h 82 % 0 mm
10:11 13.3 °C 10.1 °C 1020.9 hPa Calm     81 % 0 mm
10:16 13.7 °C 10.1 °C 1020.9 hPa Calm     79 % 0 mm
10:21 13.6 °C 9.8 °C 1020.9 hPa Calm     78 % 0 mm
10:26 13.6 °C 9.8 °C 1020.9 hPa Calm     78 % 0 mm
10:31 13.9 °C 10.1 °C 1020.9 hPa NW 1.9 km/h 1.9 km/h 78 % 0 mm
10:36 14 °C 10.4 °C 1020.9 hPa Calm     79 % 0 mm
10:41 14.3 °C 10.3 °C 1020.5 hPa NW 1.9 km/h 1.9 km/h 77 % 0 mm
10:46 14.4 °C 10.3 °C 1020.5 hPa West 1.9 km/h 1.9 km/h 76 % 0 mm
10:51 14.6 °C 10.6 °C 1020.2 hPa Calm     77 % 0 mm
10:56 14.9 °C 10.6 °C 1020.2 hPa Calm     75 % 0 mm
11:01 15.3 °C 11.3 °C 1020.2 hPa Calm     77 % 0 mm
11:06 15.8 °C 11.2 °C 1019.9 hPa NNW 1.9 km/h 1.9 km/h 74 % 0 mm
11:11 15.8 °C 11 °C 1019.9 hPa Calm     73 % 0 mm
11:16 15.9 °C 11.1 °C 1019.9 hPa Calm     73 % 0 mm
11:21 15.8 °C 11 °C 1019.9 hPa NW 5.6 km/h 5.6 km/h 73 % 0 mm
11:27 15.7 °C 10.9 °C 1019.9 hPa Calm     73 % 0 mm
11:32 15.9 °C 11.5 °C 1019.9 hPa Calm     75 % 0 mm
11:37 16.3 °C 11.2 °C 1019.5 hPa Calm     72 % 0 mm
11:42 16.4 °C 11.1 °C 1019.5 hPa WNW 1.9 km/h 1.9 km/h 71 % 0 mm
11:47 16.4 °C 11.6 °C 1019.2 hPa Calm     73 % 0 mm
11:52 16.6 °C 11.7 °C 1019.2 hPa East 1.9 km/h 1.9 km/h 73 % 0 mm
11:57 16.8 °C 11.6 °C 1019.2 hPa WNW 3.7 km/h 3.7 km/h 71 % 0 mm
12:02 16.8 °C 11.8 °C 1018.8 hPa NNW 1.9 km/h 1.9 km/h 72 % 0 mm
12:07 17.2 °C 11.9 °C 1018.8 hPa NW 5.6 km/h 5.6 km/h 71 % 0 mm
12:12 17.2 °C 11.9 °C 1018.8 hPa West 1.9 km/h 1.9 km/h 71 % 0 mm
12:17 17.3 °C 12 °C 1018.8 hPa NW 4.8 km/h 4.8 km/h 71 % 0 mm
12:22 17.4 °C 12.1 °C 1018.8 hPa South 3.2 km/h 3.2 km/h 71 % 0 mm
12:27 17.7 °C 11.9 °C 1018.5 hPa NNW 3.7 km/h 3.7 km/h 69 % 0 mm
12:32 17.8 °C 12.1 °C 1018.5 hPa NNW 3.7 km/h 3.7 km/h 69 % 0 mm
12:37 17.9 °C 11.9 °C 1018.5 hPa WNW 3.7 km/h 3.7 km/h 68 % 0 mm
12:42 17.8 °C 12.1 °C 1018.5 hPa Calm     69 % 0 mm
12:47 18.1 °C 11.8 °C 1018.5 hPa NNW 5.6 km/h 5.6 km/h 67 % 0 mm
12:52 18.3 °C 12.6 °C 1018.2 hPa Calm     69 % 0 mm
12:57 18.6 °C 12.1 °C 1018.2 hPa Calm     66 % 0 mm
13:02 18.8 °C 12.1 °C 1017.8 hPa Calm     65 % 0 mm
13:07 18.8 °C 11.9 °C 1017.8 hPa NW 3.7 km/h 3.7 km/h 64 % 0 mm
13:12 18.7 °C 12 °C 1017.5 hPa Calm     65 % 0 mm
13:17 18.6 °C 11.4 °C 1017.5 hPa NW 3.7 km/h 3.7 km/h 63 % 0 mm
13:22 18.6 °C 11.6 °C 1017.5 hPa NNW 3.7 km/h 3.7 km/h 64 % 0 mm
13:27 18.5 °C 11.3 °C 1017.5 hPa NW 1.9 km/h 1.9 km/h 63 % 0 mm
13:32 18.5 °C 11.6 °C 1017.5 hPa WNW 1.9 km/h 1.9 km/h 64 % 0 mm
13:37 18.8 °C 11.6 °C 1017.5 hPa Calm     63 % 0 mm
13:42 19 °C 11.8 °C 1017.5 hPa NNW 1.9 km/h 1.9 km/h 63 % 0 mm
13:47 19.3 °C 11.9 °C 1017.5 hPa South 1.9 km/h 1.9 km/h 62 % 0 mm
13:52 19.3 °C 11.6 °C 1017.2 hPa WNW 1.9 km/h 1.9 km/h 61 % 0 mm
13:57 19.2 °C 11.8 °C 1017.2 hPa WNW 3.7 km/h 3.7 km/h 62 % 0 mm
14:02 19.1 °C 11.4 °C 1017.2 hPa NW 1.9 km/h 1.9 km/h 61 % 0 mm
14:07 19.2 °C 11.9 °C 1017.2 hPa NW 1.9 km/h   63 % 0 mm
14:12 19.1 °C 11.7 °C 1017.2 hPa WNW 5.6 km/h 5.6 km/h 62 % 0 mm
14:17 19.1 °C 11.4 °C 1017.2 hPa North 1.9 km/h   61 % 0 mm
14:22 19.2 °C 11.8 °C 1016.8 hPa Calm     62 % 0 mm
14:27 19.3 °C 11.6 °C 1017.2 hPa WNW 3.2 km/h 3.2 km/h 61 % 0 mm
14:32 19.3 °C 11.3 °C 1016.8 hPa WNW 1.9 km/h   60 % 0 mm
14:37 19.4 °C 11.7 °C 1016.8 hPa Calm     61 % 0 mm
14:42 19.6 °C 11.8 °C 1016.8 hPa NNW 1.9 km/h 1.9 km/h 61 % 0 mm
14:47 19.7 °C 11.7 °C 1016.8 hPa SSW 1.9 km/h   60 % 0 mm
14:52 19.8 °C 11.6 °C 1016.8 hPa NW 3.7 km/h 3.7 km/h 59 % 0 mm
14:57 19.6 °C 11.1 °C 1016.5 hPa Calm     58 % 0 mm
15:02 19.5 °C 11.3 °C 1016.5 hPa West 1.9 km/h   59 % 0 mm
15:07 19.4 °C 11.2 °C 1016.5 hPa NNW 3.7 km/h 3.7 km/h 59 % 0 mm
15:12 19.3 °C 11.4 °C 1016.8 hPa Calm     60 % 0 mm
15:17 19.4 °C 11.4 °C 1016.8 hPa West 3.7 km/h 3.7 km/h 60 % 0 mm
15:22 19.3 °C 11.3 °C 1016.8 hPa WNW 1.9 km/h 1.9 km/h 60 % 0 mm
15:27 19.3 °C 11.6 °C 1016.8 hPa NNW 1.9 km/h 1.9 km/h 61 % 0 mm
15:32 19.3 °C 11.6 °C 1016.8 hPa North 3.2 km/h 3.2 km/h 61 % 0 mm
15:37 19.2 °C 11 °C 1016.8 hPa Calm     59 % 0 mm
15:42 19.2 °C 11.4 °C 1016.8 hPa North 1.9 km/h 1.9 km/h 61 % 0 mm
15:47 19.1 °C 11.1 °C 1016.5 hPa NW 3.7 km/h   60 % 0 mm
15:52 18.9 °C 11.3 °C 1016.5 hPa Calm   0.2 km/h 61 % 0 mm
15:57 18.9 °C 11.2 °C 1016.5 hPa Calm     61 % 0 mm
16:02 18.8 °C 11.2 °C 1016.5 hPa Calm     61 % 0 mm
16:07 18.7 °C 11.1 °C 1016.5 hPa Calm     61 % 0 mm
16:12 18.7 °C 11 °C 1016.5 hPa Calm     61 % 0 mm
16:17 18.6 °C 11.2 °C 1016.5 hPa Calm     62 % 0 mm
16:22 18.5 °C 11.1 °C 1016.5 hPa Calm     62 % 0 mm
16:27 18.4 °C 11 °C 1016.5 hPa Calm     62 % 0 mm
16:32 18.3 °C 11.4 °C 1016.5 hPa Calm     64 % 0 mm
16:37 18.1 °C 11.4 °C 1016.5 hPa Calm     65 % 0 mm
16:42 18 °C 11.6 °C 1016.5 hPa Calm     66 % 0 mm
16:47 17.8 °C 11.6 °C 1016.5 hPa Calm     67 % 0 mm
16:52 17.6 °C 11.6 °C 1016.5 hPa Calm     68 % 0 mm
16:57 17.3 °C 11.6 °C 1016.5 hPa Calm     69 % 0 mm
17:02 17.1 °C 11.3 °C 1016.5 hPa Calm     69 % 0 mm
17:07 16.8 °C 11.6 °C 1016.5 hPa Calm     71 % 0 mm
17:12 16.6 °C 11.5 °C 1016.5 hPa Calm     72 % 0 mm
17:17 16.3 °C 11.4 °C 1016.5 hPa Calm     73 % 0 mm
17:22 16 °C 11.4 °C 1016.5 hPa Calm     74 % 0 mm
17:27 15.8 °C 11.3 °C 1016.5 hPa Calm     75 % 0 mm
17:32 15.4 °C 11.2 °C 1016.5 hPa Calm     76 % 0 mm
17:37 15.2 °C 11.2 °C 1016.8 hPa Calm     77 % 0 mm
17:42 15.1 °C 11.1 °C 1016.8 hPa Calm     77 % 0 mm
17:47 14.9 °C 10.9 °C 1016.8 hPa Calm     77 % 0 mm
17:52 14.8 °C 10.8 °C 1016.8 hPa Calm     77 % 0 mm
17:57 14.5 °C 10.7 °C 1016.8 hPa Calm     78 % 0 mm
18:02 14.2 °C 10.6 °C 1017.2 hPa Calm     79 % 0 mm
18:07 13.9 °C 10.5 °C 1017.2 hPa Calm     80 % 0 mm
18:12 13.6 °C 10.4 °C 1017.2 hPa Calm     81 % 0 mm
18:17 13.3 °C 10.3 °C 1017.2 hPa Calm     82 % 0 mm
18:22 13.2 °C 10.2 °C 1017.2 hPa Calm     82 % 0 mm
18:27 13 °C 10.2 °C 1017.5 hPa Calm     83 % 0 mm
18:32 12.8 °C 10 °C 1017.5 hPa Calm     83 % 0 mm
18:37 12.7 °C 10.1 °C 1017.5 hPa Calm     84 % 0 mm
18:42 12.6 °C 10.1 °C 1017.8 hPa Calm     85 % 0 mm
18:47 12.5 °C 10.1 °C 1017.8 hPa Calm     85 % 0 mm
18:52 12.4 °C 9.9 °C 1017.8 hPa Calm     85 % 0 mm
18:57 12.3 °C 9.9 °C 1017.8 hPa Calm     85 % 0 mm
19:02 12.3 °C 10 °C 1017.8 hPa Calm     86 % 0 mm
19:07 12.2 °C 9.7 °C 1017.8 hPa Calm     85 % 0 mm
19:12 12.1 °C 9.8 °C 1018.2 hPa Calm     86 % 0 mm
19:18 12 °C 9.7 °C 1018.2 hPa Calm     86 % 0 mm
19:23 12 °C 9.7 °C 1018.2 hPa Calm     86 % 0 mm
19:28 11.8 °C 9.6 °C 1018.2 hPa Calm     86 % 0 mm
19:33 11.8 °C 9.6 °C 1017.8 hPa Calm     86 % 0 mm
19:38 11.8 °C 9.6 °C 1017.8 hPa Calm     86 % 0 mm
19:43 11.8 °C 9.3 °C 1017.8 hPa Calm     85 % 0 mm
19:48 11.6 °C 9.2 °C 1018.2 hPa Calm     85 % 0 mm
19:53 11.4 °C 9.2 °C 1017.8 hPa Calm     86 % 0 mm
19:58 11.3 °C 9 °C 1017.8 hPa Calm     86 % 0 mm
20:03 11.1 °C 9.1 °C 1017.8 hPa Calm     87 % 0 mm
20:08 11.1 °C 9.2 °C 1017.8 hPa Calm     88 % 0 mm
20:13 11.3 °C 9.4 °C 1017.8 hPa Calm     88 % 0 mm
20:18 11.4 °C 9.4 °C 1017.8 hPa Calm     88 % 0 mm
20:23 11.2 °C 9.1 °C 1017.8 hPa Calm     87 % 0 mm
20:28 11 °C 8.9 °C 1018.2 hPa Calm     87 % 0 mm
20:33 10.8 °C 8.7 °C 1018.2 hPa Calm     87 % 0 mm
20:38 10.7 °C 8.8 °C 1018.2 hPa Calm     88 % 0 mm
20:43 10.7 °C 8.8 °C 1018.2 hPa Calm     88 % 0 mm
20:48 10.6 °C 8.7 °C 1018.2 hPa Calm     88 % 0 mm
20:53 10.3 °C 8.4 °C 1018.2 hPa Calm     88 % 0 mm
20:58 10.1 °C 8 °C 1018.5 hPa Calm     87 % 0 mm
21:03 9.8 °C 7.8 °C 1018.5 hPa Calm     87 % 0 mm
21:08 9.7 °C 7.8 °C 1018.5 hPa Calm     88 % 0 mm
21:13 9.6 °C 7.8 °C 1018.5 hPa Calm     89 % 0 mm
21:18 9.5 °C 7.8 °C 1018.5 hPa Calm     89 % 0 mm
21:23 9.5 °C 7.9 °C 1018.5 hPa Calm     90 % 0 mm
21:28 9.4 °C 7.7 °C 1018.5 hPa Calm     89 % 0 mm
21:33 9.3 °C 7.7 °C 1018.5 hPa Calm     90 % 0 mm
21:38 9.3 °C 7.9 °C 1018.8 hPa Calm     91 % 0 mm
21:43 9.2 °C 7.7 °C 1018.8 hPa Calm     90 % 0 mm
21:48 9.2 °C 7.8 °C 1018.8 hPa Calm     91 % 0 mm
21:53 9.4 °C 8.2 °C 1018.8 hPa Calm     92 % 0 mm
21:58 9.4 °C 8 °C 1019.2 hPa Calm     91 % 0 mm
22:03 9.3 °C 7.9 °C 1019.2 hPa Calm     91 % 0 mm
22:08 9.3 °C 8.1 °C 1019.2 hPa Calm     92 % 0 mm
22:13 9.3 °C 7.9 °C 1019.2 hPa Calm     91 % 0 mm
22:18 9.3 °C 7.9 °C 1019.2 hPa Calm     91 % 0 mm
22:24 9.2 °C 7.8 °C 1019.2 hPa Calm     91 % 0 mm
22:29 9.2 °C 7.8 °C 1019.2 hPa Calm     91 % 0 mm
22:34 8.9 °C 7.3 °C 1019.2 hPa Calm     90 % 0 mm
22:39 8.6 °C 7.1 °C 1019.2 hPa Calm     90 % 0 mm
22:44 8.3 °C 6.6 °C 1019.2 hPa Calm     89 % 0 mm
22:49 8.3 °C 6.9 °C 1019.2 hPa Calm     91 % 0 mm
22:54 8.2 °C 6.8 °C 1019.2 hPa Calm     91 % 0 mm
22:59 8.1 °C 6.9 °C 1019.2 hPa Calm     92 % 0 mm
23:04 8.1 °C 6.9 °C 1019.2 hPa Calm     92 % 0 mm
23:09 8.1 °C 6.8 °C 1019.2 hPa Calm     92 % 0 mm
23:14 7.9 °C 6.7 °C 1019.2 hPa Calm     92 % 0 mm
23:19 7.8 °C 6.6 °C 1019.2 hPa Calm     92 % 0 mm
23:24 7.7 °C 6.5 °C 1019.2 hPa Calm     92 % 0 mm
23:30 7.7 °C 6.4 °C 1019.2 hPa Calm     92 % 0 mm
23:35 7.6 °C 6.4 °C 1019.2 hPa Calm     92 % 0 mm
23:40 7.4 °C 6.1 °C 1019.2 hPa Calm     91 % 0 mm
23:45 7.4 °C 6.2 °C 1019.2 hPa Calm     92 % 0 mm
23:50 7.6 °C 6.5 °C 1019.2 hPa Calm     93 % 0 mm
23:55 7.5 °C 6.3 °C 1019.2 hPa Calm     92 % 0 mm
Park Place, Exeter, Tulare County, California, USA
Compliments of Weather Underground - 2.75 mb